x

Eastern Caribbean - 190 Nm Nne Of Curacao (42059) Weather Station

10:20pm - Mon 25th Sep 2017 All times are AST. -4 hours from GMT.

  • Wind
    20mph, 25mph gusts
  • Sea Temp 85°f
  • Air Temp 85°f
  • Sea Pressure 1013.4mb
  • Eastern Caribbean - 190 Nm Nne Of Curacao
  • Eastern Caribbean - 190 Nm Nne Of Curacao

More Historic Weather Station data

Upgrade to MSW Pro to gain access to the past 30 days of data for over 8000 Wavebouys and Weather Stations around the globe.

Join

Comparision Forecast

View Surf forecast
   
Mon 09/25 10:20pm  -   -   -  20 25 mph 1013.4mb 85f 85f
10:10pm  -   -   -  20 25 mph 1013.3mb 85f 85f
10:00pm  -   -   -  18 22 mph 1013.3mb 85f 85f
9:50pm 5ft 6s 5s 20 25 mph 1013.1mb 85f 85f
9:40pm  -   -   -  20 25 mph 1013mb 85f 85f
9:30pm  -   -   -  22 27 mph 1012.9mb 85f 85f
9:20pm  -   -   -  20 25 mph 1012.7mb 85f 85f
9:10pm  -   -   -  20 25 mph 1012.6mb 85f 85f
9:00pm  -   -   -  20 27 mph 1012.4mb 85f 85f
8:50pm 5ft 6s 5s 22 25 mph 1012.3mb 85f 85f
8:40pm 5ft  -  5s 20 25 mph 1012.2mb 85f 85f
8:30pm  -   -   -  20 22 mph 1012.2mb 85f 85f
8:20pm  -   -   -  20 25 mph 1012.1mb 85f 85f
8:10pm  -   -   -  18 25 mph 1011.9mb 85f 85f
8:00pm  -   -   -  18 20 mph 1011.8mb 85f 85f
7:50pm 5ft 6s 5s 16 20 mph 1011.5mb 85f 84f
7:40pm  -   -   -  18 20 mph 1011.4mb 85f 84f
7:30pm  -   -   -  18 22 mph 1011.4mb 85f 84f
7:20pm  -   -   -  20 22 mph 1011.3mb 85f 84f
7:10pm  -   -   -  20 25 mph 1011.3mb 85f 84f
7:00pm  -   -   -  18 20 mph 1011.3mb 85f 84f
6:50pm 5ft 6s 5s 18 22 mph 1011.2mb - 84f
6:40pm 5ft  -  5s 18 22 mph 1011.3mb 85f 84f
6:30pm  -   -   -  20 22 mph 1011.2mb 85f 84f
6:20pm  -   -   -  18 22 mph 1011.1mb 85f 84f
6:10pm  -   -   -  20 25 mph 1011.3mb 85f 84f
6:00pm  -   -   -  20 25 mph 1011.4mb - 85f
5:50pm 5ft 6s 5s 20 25 mph 1011.5mb - 84f
5:40pm 5ft  -  5s 22 27 mph 1011.5mb 85f 83f
5:30pm  -   -   -  25 29 mph 1011.5mb 85f 83f
5:20pm  -   -   -  20 27 mph 1011.4mb 85f 85f
5:10pm  -   -   -  20 25 mph 1011.3mb 85f 85f
5:00pm  -   -   -  18 25 mph 1011.5mb 85f 85f
4:50pm 4.5ft 6s 5s 16 20 mph 1011.5mb 85f 85f
4:40pm  -   -   -  18 22 mph 1011.4mb 85f 85f
4:30pm  -   -   -  20 25 mph 1011.4mb 85f 84f
4:20pm  -   -   -  20 27 mph 1011.3mb 85f 83f
4:10pm  -   -   -  22 29 mph 1011.6mb 85f 83f
4:00pm  -   -   -  20 29 mph 1011.7mb 86f 85f
3:50pm 4.5ft 6s 5s 20 25 mph 1011.7mb 86f 85f
3:40pm 4.5ft  -  5s 13 20 mph 1011.8mb 86f 83f
3:30pm  -   -   -  11 16 mph 1011.8mb 86f 82f
3:20pm  -   -   -  18 25 mph 1011.8mb 86f 81f
3:10pm  -   -   -  25 34 mph 1011.8mb 86f 79f
3:00pm  -   -   -  29 38 mph 1011.8mb 86f 82f
2:50pm 4.5ft 6s 5s 18 22 mph 1011.7mb 86f 85f
2:40pm  -   -   -  18 22 mph 1011.6mb 86f 85f
2:30pm  -   -   -  18 22 mph 1011.7mb 86f 85f
2:20pm  -   -   -  18 22 mph 1011.9mb 86f 85f
2:10pm  -   -   -  18 25 mph 1012.2mb 86f 85f
2:00pm  -   -   -  20 22 mph 1012.3mb 86f 85f
1:50pm 4.5ft 7s 5s 20 25 mph 1012.4mb 86f 85f
1:40pm  -   -   -  20 22 mph 1012.7mb 86f 86f
1:30pm  -   -   -  20 25 mph 1012.7mb - 85f
1:20pm  -   -   -  18 22 mph 1012.7mb 86f 85f
1:10pm  -   -   -  20 22 mph 1012.7mb 86f 85f
1:00pm  -   -   -  20 22 mph 1012.7mb 86f 85f
12:50pm 4.5ft 6s 5s 18 22 mph 1013mb 86f 85f
12:40pm  -   -   -  20 25 mph 1013.2mb 86f 85f
12:30pm  -   -   -  20 22 mph 1013.3mb 86f 85f
12:20pm  -   -   -  20 22 mph 1013.3mb 86f 85f
12:10pm  -   -   -  18 22 mph 1013.5mb 86f 85f
12:00pm  -   -   -  18 25 mph 1013.6mb 86f 85f
11:50am 4.5ft 7s 5s 18 20 mph 1013.8mb 86f 85f
11:40am  -   -   -  18 22 mph 1014.1mb 86f 85f
11:30am  -   -   -  18 22 mph 1014.2mb 85f 85f
11:20am  -   -   -  18 22 mph 1014.2mb 85f 85f
11:10am  -   -   -  20 25 mph 1014.3mb 85f 85f
11:00am  -   -   -  20 25 mph 1014.4mb 85f 85f
10:50am 4.5ft 6s 5s 20 25 mph 1014.4mb 85f 85f
10:40am  -   -   -  20 25 mph 1014.6mb 85f 85f
10:30am  -   -   -  20 25 mph 1014.6mb 85f 85f
10:20am  -   -   -  20 25 mph 1014.5mb 85f 85f
10:10am  -   -   -  20 25 mph 1014.5mb 85f 85f
10:00am  -   -   -  20 25 mph 1014.5mb 85f 85f
9:50am 4.5ft 7s 5s 20 25 mph 1014.4mb 85f 85f
9:40am 4.5ft  -  5s 20 25 mph 1014.4mb - 85f
9:30am  -   -   -  20 25 mph 1014.4mb 85f 85f
9:20am  -   -   -  20 25 mph 1014.3mb 85f 85f
9:10am  -   -   -  20 25 mph 1014.2mb 85f 85f
9:00am  -   -   -  20 25 mph 1014.2mb 85f 85f
8:50am 4.5ft 6s 5s 20 25 mph 1014.1mb 85f 85f
8:40am  -   -   -  18 22 mph 1014.1mb 85f 85f
8:30am  -   -   -  18 22 mph 1013.9mb 85f 85f
8:20am  -   -   -  18 22 mph 1013.8mb 85f 85f
8:10am  -   -   -  18 22 mph 1013.6mb 85f 85f
8:00am  -   -   -  18 22 mph 1013.5mb 85f 85f
7:50am 5ft 6s 5s 18 22 mph 1013.3mb 85f 85f
7:40am  -   -   -  18 22 mph 1013.2mb 85f 85f
7:30am  -   -   -  18 22 mph 1013mb 85f 85f
7:20am  -   -   -  16 18 mph 1012.8mb 85f 85f
7:10am  -   -   -  16 20 mph 1012.7mb 85f 85f
7:00am  -   -   -  16 20 mph 1012.6mb 85f 85f
6:50am 4.5ft 6s 5s 16 20 mph 1012.6mb 85f 85f
6:40am  -   -   -  16 18 mph 1012.5mb 85f 84f
6:30am  -   -   -  18 22 mph 1012.4mb 85f 85f
6:20am  -   -   -  16 20 mph 1012.2mb 85f 85f
6:10am  -   -   -  16 20 mph 1011.9mb 85f 85f
6:00am  -   -   -  16 20 mph 1011.9mb - 84f
5:50am 5ft 6s 5s 16 20 mph 1011.9mb 85f 84f
5:40am  -   -   -  16 20 mph 1011.8mb 85f 85f
5:30am  -   -   -  16 20 mph 1011.8mb 85f 84f
5:20am  -   -   -  16 20 mph 1011.7mb 85f 85f
5:10am  -   -   -  16 20 mph 1011.6mb 85f 84f
5:00am  -   -   -  16 18 mph 1011.5mb 85f 85f
4:50am 4.5ft 6s 5s 16 18 mph 1011.5mb 85f 85f
4:40am 4.5ft  -  5s 16 18 mph 1011.3mb 85f 85f
4:30am  -   -   -  13 18 mph 1011.2mb - 85f
4:20am  -   -   -  13 18 mph 1011.1mb 85f 84f
4:10am  -   -   -  13 16 mph 1011.1mb 85f 84f
4:00am  -   -   -  13 16 mph 1011.1mb 85f 84f
3:50am 5ft 6s 5s 11 16 mph 1011.2mb 85f 85f
3:40am  -   -   -  13 18 mph 1011.3mb 85f 85f
3:30am  -   -   -  16 20 mph 1011.4mb - 85f
3:20am  -   -   -  18 20 mph 1011.5mb 85f 85f
3:10am  -   -   -  16 20 mph 1011.7mb 85f 85f
3:00am  -   -   -  18 22 mph 1011.7mb 85f 85f
2:50am 5ft 6s 5s 18 22 mph 1011.8mb 85f 85f
2:40am  -   -   -  18 20 mph 1011.8mb 85f 85f
2:30am  -   -   -  20 25 mph 1011.8mb 85f 85f
2:20am  -   -   -  20 25 mph 1011.8mb 85f 85f
2:10am  -   -   -  20 25 mph 1011.8mb - 85f
2:00am  -   -   -  20 22 mph 1012mb 85f 85f
1:50am 5ft 6s 5s 20 25 mph 1012.1mb 85f 85f
1:40am  -   -   -  20 25 mph 1012.1mb 85f 85f
1:30am  -   -   -  22 25 mph 1012.4mb 85f 85f
1:20am  -   -   -  22 27 mph 1012.5mb 85f 85f
1:10am  -   -   -  22 27 mph 1012.5mb 85f 85f
1:00am  -   -   -  22 27 mph 1012.8mb - 85f
12:50am 5ft 6s 5s 20 25 mph 1013mb 85f 85f
12:40am  -   -   -  20 25 mph 1013mb 85f 85f
12:30am  -   -   -  22 25 mph 1013.1mb - 85f
12:20am  -   -   -  22 27 mph 1013.2mb 85f 85f
12:10am  -   -   -  22 27 mph 1013.3mb 85f 85f
12:00am  -   -   -  20 27 mph 1013.4mb 85f 85f
Sun 09/24 11:50pm 4.5ft 6s 5s 22 27 mph 1013.4mb 85f 85f
11:40pm  -   -   -  22 29 mph 1013.3mb 85f 85f
11:30pm  -   -   -  22 27 mph 1013.4mb 85f 85f
11:20pm  -   -   -  22 27 mph 1013.4mb 85f 85f
11:10pm  -   -   -  20 27 mph 1013.6mb 85f 85f
11:00pm  -   -   -  22 27 mph 1013.5mb 85f 85f
10:50pm 4.5ft 6s 5s 22 27 mph 1013.5mb 85f 85f
10:40pm 4.5ft  -  5s 22 27 mph 1013.6mb 85f 85f
10:30pm  -   -   -  20 25 mph 1013.6mb 85f 85f
10:20pm  -   -   -  20 25 mph 1013.6mb 85f 85f
10:10pm  -   -   -  20 25 mph 1013.6mb 85f 85f
10:00pm  -   -   -  20 25 mph 1013.6mb 85f 85f
9:50pm 4.5ft 6s 5s 20 25 mph 1013.6mb 85f 85f
9:40pm 4.5ft  -  5s 18 22 mph 1013.6mb 85f 85f
9:30pm  -   -   -  18 22 mph 1013.6mb 85f 85f
9:20pm  -   -   -  18 22 mph 1013.3mb 85f 85f
9:10pm  -   -   -  18 20 mph 1013.3mb 85f 85f
9:00pm  -   -   -  18 22 mph 1013.2mb - 85f
8:50pm 5ft 6s 5s 20 22 mph 1013mb 85f 85f
8:40pm  -   -   -  20 25 mph 1013mb 85f 85f
8:30pm  -   -   -  20 22 mph 1013mb 85f 85f
8:20pm  -   -   -  18 22 mph 1012.7mb 85f 85f
8:10pm  -   -   -  20 22 mph 1012.7mb 85f 85f
8:00pm  -   -   -  20 22 mph 1012.7mb 85f 86f
7:50pm 4.5ft 6s 5s 20 22 mph 1012.5mb 85f 86f
7:40pm 4.5ft  -  5s 20 22 mph 1012.4mb 86f 86f
7:30pm  -   -   -  18 25 mph 1012.4mb 86f 86f
7:20pm  -   -   -  20 25 mph 1012.3mb 86f 86f
7:10pm  -   -   -  18 22 mph 1012.2mb 85f 86f
7:00pm  -   -   -  18 22 mph 1012.1mb 85f 86f
6:50pm 4.5ft 6s 5s 18 22 mph 1012.1mb 85f 86f
6:40pm 4.5ft  -  5s 18 22 mph 1012mb 85f 86f
6:30pm  -   -   -  18 20 mph 1011.9mb 86f 86f
6:20pm  -   -   -  18 22 mph 1011.7mb 86f 86f
6:10pm  -   -   -  18 20 mph 1011.7mb 86f 86f
6:00pm  -   -   -  18 22 mph 1011.6mb 86f 86f
5:50pm 4.5ft 6s 5s 16 20 mph 1011.6mb 86f 86f
5:40pm  -   -   -  16 20 mph 1011.5mb 86f 86f
5:30pm  -   -   -  16 20 mph 1011.4mb 86f 86f
5:20pm  -   -   -  18 20 mph 1011.2mb 86f 86f
5:10pm  -   -   -  16 20 mph 1011.1mb 86f 86f
5:00pm  -   -   -  16 18 mph 1011.2mb 86f 86f
4:50pm 4.5ft  -  5s 16 20 mph 1011.1mb - 86f
4:40pm 4.5ft 6s 5s  -  mph - 86f -
4:30pm  -   -   -  16 18 mph 1011mb 86f 86f
4:20pm  -   -   -  16 20 mph 1011mb 86f 86f
4:10pm  -   -   -  16 18 mph 1010.9mb 86f 86f
4:00pm  -   -   -  16 20 mph 1010.9mb 86f 86f
3:50pm 5ft 6s 5s 18 20 mph 1010.8mb 86f 86f
3:40pm  -   -   -  16 20 mph 1010.8mb 86f 86f
3:30pm  -   -   -  18 20 mph 1010.8mb 86f 86f
3:20pm  -   -   -  16 20 mph 1011mb 86f 86f
3:10pm  -   -   -  16 20 mph 1011.1mb 86f 86f
3:00pm  -   -   -  16 20 mph 1011.2mb 86f 86f
2:50pm 4.5ft 7s 5s 16 18 mph 1011.3mb 86f 86f
2:40pm  -   -   -  16 20 mph 1011.4mb 86f 86f
2:30pm  -   -   -  18 20 mph 1011.5mb 86f 86f
2:20pm  -   -   -  16 20 mph 1011.7mb 86f 86f
2:10pm  -   -   -  16 20 mph 1011.7mb 86f 86f
2:00pm  -   -   -  16 20 mph 1011.9mb 86f 86f
1:50pm 4.5ft 6s 5s 18 20 mph 1011.9mb 86f 86f
1:40pm 4.5ft  -  5s 18 22 mph 1012mb - 86f
1:30pm  -   -   -  18 20 mph 1012.1mb 86f 86f
1:20pm  -   -   -  18 20 mph 1012.2mb 86f 86f
1:10pm  -   -   -  18 22 mph 1012.3mb 86f 86f
1:00pm  -   -   -  18 22 mph 1012.4mb 86f 86f
12:50pm 4.5ft 6s 5s 18 22 mph 1012.4mb 86f 86f
12:40pm  -   -   -  18 22 mph 1012.6mb 86f 86f
12:30pm  -   -   -  18 20 mph 1012.7mb 86f 86f
12:20pm  -   -   -  18 20 mph 1013mb 86f 86f
12:10pm  -   -   -  20 22 mph 1013mb 85f 86f
12:00pm  -   -   -  18 22 mph 1013.2mb 86f 86f
11:50am 4.5ft 6s 5s 18 22 mph 1013.3mb 85f 86f
11:40am  -   -   -  18 22 mph 1013.6mb 85f 86f
11:30am  -   -   -  18 20 mph 1013.6mb 85f 86f
11:20am  -   -   -  18 20 mph 1013.6mb 85f 86f
11:10am  -   -   -  16 20 mph 1013.7mb 85f 86f
11:00am  -   -   -  16 20 mph 1013.8mb 85f 86f
10:50am 4.5ft 6s 5s 16 20 mph 1013.7mb 85f 86f
10:40am  -   -   -  16 20 mph 1013.7mb 85f 86f
10:30am  -   -   -  16 20 mph 1013.7mb 85f 86f
10:20am  -   -   -  18 22 mph 1013.6mb 85f 86f
10:10am  -   -   -  18 22 mph 1013.6mb 85f 86f
10:00am  -   -   -  18 20 mph 1013.6mb 85f 86f
9:50am 4.5ft 7s 5s 18 20 mph 1013.5mb 85f 86f
9:40am  -   -   -  18 22 mph 1013.5mb 85f 86f
9:30am  -   -   -  18 22 mph 1013.4mb 85f 86f
9:20am  -   -   -  18 22 mph 1013.3mb - 86f
9:10am  -   -   -  18 22 mph 1013.3mb 85f 86f
9:00am  -   -   -  18 22 mph 1013.1mb - 86f
8:50am 4.5ft  -  5s 20 22 mph 1013mb - 86f
8:40am 4.5ft 6s 5s  -  mph - 85f -
8:30am  -   -   -  18 22 mph 1012.8mb 85f 86f
8:20am  -   -   -  18 22 mph 1012.8mb 85f 85f
8:10am  -   -   -  18 20 mph 1012.6mb 85f 85f
8:00am  -   -   -  16 20 mph 1012.4mb 85f 85f
7:50am 4.5ft 6s 5s 18 20 mph 1012.4mb 85f 85f
7:40am  -   -   -  18 20 mph 1012.3mb 85f 85f
7:30am  -   -   -  18 20 mph 1012.2mb 85f 85f
7:20am  -   -   -  18 20 mph 1012.2mb 85f 85f
7:10am  -   -   -  16 20 mph 1012mb 85f 85f
7:00am  -   -   -  16 20 mph 1011.9mb 85f 85f
6:50am 4.5ft 6s 5s 16 20 mph 1011.8mb 85f 85f
6:40am  -   -   -  18 20 mph 1011.7mb 85f 85f
6:30am  -   -   -  18 22 mph 1011.5mb 85f 85f
6:20am  -   -   -  18 22 mph 1011.4mb 85f 85f
6:10am  -   -   -  16 20 mph 1011.3mb 85f 85f
6:00am  -   -   -  16 20 mph 1011.1mb 85f 85f
5:50am 4.5ft 7s 5s 16 20 mph 1011mb 85f 85f
5:40am  -   -   -  16 20 mph 1010.9mb 85f 85f
5:30am  -   -   -  16 20 mph 1010.9mb 85f 85f
5:20am  -   -   -  18 20 mph 1010.8mb 85f 85f
5:10am  -   -   -  18 20 mph 1010.7mb 85f 85f
5:00am  -   -   -  16 20 mph 1010.7mb 85f 85f
4:50am 4.5ft 6s 5s 18 22 mph 1010.8mb 85f 85f
4:40am 4.5ft  -  5s 18 20 mph 1010.7mb 85f 85f
4:30am  -   -   -  18 22 mph 1010.7mb 85f 85f
4:20am  -   -   -  18 20 mph 1010.6mb - 85f
4:10am  -   -   -  18 22 mph 1010.4mb 85f 85f
4:00am  -   -   -  18 22 mph 1010.3mb 85f 85f
3:50am 4.5ft 7s 5s 18 22 mph 1010.2mb 85f 85f
3:40am 4.5ft  -  5s 18 20 mph 1010.3mb 85f 85f
3:30am  -   -   -  18 22 mph 1010.4mb 85f 85f
3:20am  -   -   -  18 20 mph 1010.4mb 85f 85f
3:10am  -   -   -  18 22 mph 1010.4mb 85f 85f
3:00am  -   -   -  16 20 mph 1010.6mb 85f 85f
2:50am 5ft 7s 5s 18 20 mph 1010.6mb 85f 85f
2:40am  -   -   -  18 22 mph 1010.8mb 85f 85f
2:30am  -   -   -  18 20 mph 1011mb 85f 85f
2:20am  -   -   -  18 22 mph 1011.1mb 85f 85f
2:10am  -   -   -  20 22 mph 1011.1mb 85f 85f
2:00am  -   -   -  20 22 mph 1011.1mb - 85f
1:50am 4.5ft 7s 5s 18 22 mph 1011.3mb 85f 85f
1:40am  -   -   -  18 22 mph 1011.3mb 85f 85f
1:30am  -   -   -  18 25 mph 1011.4mb 85f 85f
1:20am  -   -   -  18 22 mph 1011.4mb 85f 85f
1:10am  -   -   -  16 22 mph 1011.7mb 85f 84f
1:00am  -   -   -  20 27 mph 1011.9mb 85f 84f
12:50am 4.5ft 7s 5s 18 20 mph 1011.9mb 85f 86f
12:40am  -   -   -  18 20 mph 1012.1mb 85f 86f
12:30am  -   -   -  18 22 mph 1012.2mb 85f 86f
12:20am  -   -   -  18 22 mph 1012.3mb 85f 85f
12:10am  -   -   -  18 20 mph 1012.4mb 85f 86f
12:00am  -   -   -  18 22 mph 1012.6mb 85f 85f
Sat 09/23 11:50pm 4.5ft 7s 5s 18 22 mph 1012.7mb 85f 86f
11:40pm  -   -   -  18 22 mph 1012.7mb 85f 86f
11:30pm  -   -   -  18 22 mph 1012.6mb 85f 86f
11:20pm  -   -   -  18 22 mph 1012.7mb 85f 86f
11:10pm  -   -   -  18 22 mph 1012.5mb 85f 86f
11:00pm  -   -   -  18 22 mph 1012.4mb 85f 86f
10:50pm 4.5ft 7s 5s 18 25 mph 1012.3mb 85f 86f
10:40pm 4.5ft  -  5s 18 22 mph 1012.1mb 85f 85f
10:30pm  -   -   -  18 22 mph 1012mb 85f 85f
10:20pm  -   -   -  18 25 mph 1012mb 85f 85f
10:10pm  -   -   -  20 22 mph 1012.1mb 85f 85f
10:00pm  -   -   -  20 22 mph 1012.1mb 85f 85f
9:50pm 4.5ft 7s 5s 18 22 mph 1012.1mb 85f 85f
9:40pm 4.5ft  -  5s 18 22 mph 1011.9mb 85f 85f
9:30pm  -   -   -  18 22 mph 1011.9mb 85f 85f
9:20pm  -   -   -  18 20 mph 1011.8mb 85f 85f
9:10pm  -   -   -  18 22 mph 1011.8mb - 85f
9:00pm  -   -   -  18 20 mph 1011.7mb 85f 85f
8:50pm 5ft 6s 5s 18 20 mph 1011.6mb 85f 85f
8:40pm 5ft  -  5s 18 22 mph 1011.4mb 85f 85f
8:30pm  -   -   -  18 20 mph 1011.2mb 85f 85f
8:20pm  -   -   -  18 20 mph 1011.2mb - 85f
8:10pm  -   -   -  18 22 mph 1011.1mb 85f 85f
8:00pm  -   -   -  16 20 mph 1010.9mb 85f 85f
7:50pm 5ft 7s 5s 16 20 mph 1010.9mb 85f 85f
7:40pm  -   -   -  16 18 mph 1010.8mb 85f 86f
7:30pm  -   -   -  16 20 mph 1010.7mb 85f 85f
7:20pm  -   -   -  16 18 mph 1010.6mb 85f 85f
7:10pm  -   -   -  16 18 mph 1010.4mb 85f 85f
7:00pm  -   -   -  16 20 mph 1010.3mb 85f 85f
6:50pm 5ft 7s 5s 16 18 mph 1010.2mb 85f 85f
6:40pm  -   -   -  16 18 mph 1010.2mb 85f 85f
6:30pm  -   -   -  16 20 mph 1010mb 85f 85f
6:20pm  -   -   -  16 18 mph 1010.1mb 85f 85f
6:10pm  -   -   -  13 18 mph 1010.1mb 85f 86f
6:00pm  -   -   -  16 18 mph 1010.1mb 85f 86f
5:50pm 5ft 6s 5s 16 18 mph 1010mb 85f 86f
5:40pm  -   -   -  16 18 mph 1010mb 85f 86f
5:30pm  -   -   -  16 18 mph 1009.8mb 85f 86f
5:20pm  -   -   -  16 20 mph 1009.8mb 85f 86f
5:10pm  -   -   -  16 20 mph 1009.6mb 86f 86f
5:00pm  -   -   -  16 20 mph 1009.6mb 86f 86f
4:50pm 5ft 6s 5s 16 20 mph 1009.5mb 86f 86f
4:40pm  -   -   -  16 20 mph 1009.5mb 86f 86f
4:30pm  -   -   -  16 20 mph 1009.5mb 86f 86f
4:20pm  -   -   -  16 20 mph 1009.6mb 86f 86f
4:10pm  -   -   -  18 20 mph 1009.7mb 86f 86f
4:00pm  -   -   -  18 22 mph 1009.6mb 86f 86f
3:50pm 5ft  -  5s 18 20 mph 1009.7mb - -
3:40pm 5ft  -  5s 18 20 mph 1009.7mb 86f 86f
3:30pm  -   -   -  18 22 mph 1009.7mb 85f 86f
3:20pm  -   -   -  16 20 mph 1009.8mb 86f 86f
3:10pm  -   -   -  18 20 mph 1009.8mb 85f 86f
3:00pm  -   -   -  18 20 mph 1010mb 86f 86f
2:50pm 5.5ft 7s 5s 18 20 mph 1010.1mb 86f 86f
2:40pm  -   -   -  18 20 mph 1010.3mb 86f 86f
2:30pm  -   -   -  18 22 mph 1010.3mb 86f 86f
2:20pm  -   -   -  18 22 mph 1010.3mb 85f 86f
2:10pm  -   -   -  18 20 mph 1010.4mb 85f 86f
2:00pm  -   -   -  18 22 mph 1010.4mb 85f 86f
1:50pm 5ft 7s 5s 18 22 mph 1010.6mb 85f 86f
1:40pm  -   -   -  18 22 mph 1010.7mb 85f 86f
1:30pm  -   -   -  18 22 mph 1010.6mb 85f 86f
1:20pm  -   -   -  18 22 mph 1010.7mb 85f 86f
1:10pm  -   -   -  20 25 mph 1010.9mb 85f 86f
1:00pm  -   -   -  20 22 mph 1010.9mb 85f 86f
12:50pm 5ft 7s 5s 20 25 mph 1010.9mb 85f 86f
12:40pm  -   -   -  20 25 mph 1011mb 85f 86f
12:30pm  -   -   -  20 25 mph 1011mb 85f 86f
12:20pm  -   -   -  20 25 mph 1011.1mb 85f 86f
12:10pm  -   -   -  22 25 mph 1011.3mb 85f 86f
12:00pm  -   -   -  20 25 mph 1011.4mb 85f 86f
11:50am 5ft 7s 5s 20 25 mph 1011.5mb 85f 86f
11:40am  -   -   -  20 25 mph 1011.6mb 85f 86f
11:30am  -   -   -  20 25 mph 1011.8mb 85f 86f
11:20am  -   -   -  20 25 mph 1011.9mb 85f 86f
11:10am  -   -   -  20 22 mph 1011.9mb 85f 86f
11:00am  -   -   -  20 22 mph 1012mb 85f 86f
10:50am 5ft 7s 5s 20 22 mph 1012.2mb 85f 86f
10:40am  -   -   -  20 27 mph 1012.3mb 85f 86f
10:30am  -   -   -  20 25 mph 1012.2mb 85f 86f
10:20am  -   -   -  20 22 mph 1012.1mb 85f 86f
10:10am  -   -   -  18 22 mph 1012.1mb 85f 86f
10:00am  -   -   -  18 22 mph 1012mb 85f 86f
9:50am 5ft 6s 5s 18 22 mph 1011.9mb 85f 86f
9:40am  -   -   -  20 22 mph 1011.8mb 85f 86f
9:30am  -   -   -  20 25 mph 1011.8mb 85f 86f
9:20am  -   -   -  20 25 mph 1011.7mb 85f 86f
9:10am  -   -   -  18 22 mph 1011.6mb - 86f
9:00am  -   -   -  20 22 mph 1011.6mb - 86f
8:50am 5ft 6s 5s 18 22 mph 1011.5mb 85f 86f
8:40am  -   -   -  18 22 mph 1011.4mb 85f 85f
8:30am  -   -   -  20 25 mph 1011.2mb 85f 86f
8:20am  -   -   -  20 25 mph 1011.1mb 85f 85f
8:10am  -   -   -  20 22 mph 1011mb 85f 85f
8:00am  -   -   -  20 22 mph 1011mb 85f 85f
7:50am 5ft 7s 5s 20 22 mph 1010.8mb 85f 85f
7:40am  -   -   -  20 22 mph 1010.7mb 85f 85f
7:30am  -   -   -  20 22 mph 1010.7mb 85f 85f
7:20am  -   -   -  18 22 mph 1010.6mb 85f 85f
7:10am  -   -   -  18 22 mph 1010.6mb 85f 85f
7:00am  -   -   -  18 22 mph 1010.4mb 85f 85f
6:50am 5ft 6s 5s 18 22 mph 1010.3mb 85f 85f
6:40am 5ft  -  5s 18 25 mph 1010.2mb 85f 85f
6:30am  -   -   -  18 22 mph 1010.1mb 85f 85f
6:20am  -   -   -  20 22 mph 1009.9mb 85f 85f
6:10am  -   -   -  18 22 mph 1009.7mb 85f 85f
6:00am  -   -   -  18 25 mph 1009.5mb 85f 85f
5:50am 5.5ft 7s 5s 20 25 mph 1009.3mb 85f 85f
5:40am  -   -   -  20 25 mph 1009.1mb 85f 85f
5:30am  -   -   -  20 25 mph 1009mb 85f 85f
5:20am  -   -   -  20 25 mph 1009mb 85f 85f
5:10am  -   -   -  18 22 mph 1008.9mb 85f 85f
5:00am  -   -   -  20 27 mph 1008.8mb 85f 85f
4:50am 5.5ft 7s 5s 20 25 mph 1008.9mb 85f 85f
4:40am  -   -   -  20 25 mph 1008.9mb 85f 85f
4:30am  -   -   -  20 25 mph 1009mb 85f 85f
4:20am  -   -   -  20 22 mph 1009.1mb 85f 85f
4:10am  -   -   -  20 22 mph 1009.1mb 85f 85f
4:00am  -   -   -  20 25 mph 1009mb 85f 85f
3:50am 5ft 7s 5s 20 22 mph 1008.9mb 85f 85f
3:40am 5ft  -  5s 20 25 mph 1008.9mb 85f 85f
3:30am  -   -   -  22 27 mph 1008.9mb - 85f
3:20am  -   -   -  20 25 mph 1008.9mb 85f 85f
3:10am  -   -   -  20 27 mph - 85f 85f
3:00am  -   -   -  20 25 mph 1008.8mb - 85f
2:50am 5.5ft 7s 5s 20 25 mph 1008.8mb 85f 85f
2:40am 5.5ft  -  5s 20 25 mph 1009mb 85f 85f
2:30am  -   -   -  20 25 mph 1009.2mb 85f 85f
2:20am  -   -   -  20 25 mph 1009.2mb 85f 85f
2:10am  -   -   -  20 25 mph 1009.2mb 85f 85f
2:00am  -   -   -  20 25 mph 1009.2mb 85f 85f
1:50am 6ft 7s 5s 20 25 mph 1009.2mb 85f 85f
1:40am  -   -   -  20 22 mph 1009.3mb 85f 85f
1:30am  -   -   -  20 22 mph 1009.4mb 85f 85f
1:20am  -   -   -  20 25 mph 1009.4mb 85f 85f
1:10am  -   -   -  20 25 mph 1009.5mb 85f 85f
1:00am  -   -   -  20 25 mph 1009.7mb 85f 85f
12:50am 5.5ft 7s 5s 20 25 mph 1009.6mb 85f 85f
12:40am 5.5ft  -  5s 20 25 mph 1009.8mb 85f 85f
12:30am  -   -   -  20 25 mph 1009.7mb 85f 85f
12:20am  -   -   -  20 25 mph 1009.8mb 85f 85f
12:10am  -   -   -  20 25 mph 1009.7mb 85f 85f
12:00am  -   -   -  20 25 mph 1009.9mb 85f 85f
Fri 09/22 11:50pm 5.5ft 7s 5s 20 25 mph 1009.9mb 85f 85f
11:40pm  -   -   -  20 25 mph 1010.1mb 85f 85f
11:30pm  -   -   -  18 22 mph 1010.1mb 85f 85f
11:20pm  -   -   -  20 25 mph 1010.2mb 85f 85f
11:10pm  -   -   -  20 25 mph 1010.3mb 85f 85f
11:00pm  -   -   -  20 25 mph 1010.2mb 85f 85f
10:50pm 6ft 7s 5s 20 25 mph 1010.3mb 85f 86f
10:40pm  -   -   -  20 25 mph 1010.5mb 85f 85f
10:30pm  -   -   -  20 25 mph 1010.5mb 85f 86f
10:20pm  -   -   -  20 25 mph 1010.5mb 85f 86f
10:10pm  -   -   -  20 25 mph 1010.5mb 85f 85f
10:00pm  -   -   -  20 25 mph 1010.3mb 85f 86f
9:50pm 5ft 7s 5s 22 27 mph 1010.1mb 85f 85f
9:40pm  -   -   -  20 25 mph 1010mb 85f 85f
9:30pm  -   -   -  20 25 mph 1009.9mb 85f 85f
9:20pm  -   -   -  20 25 mph 1009.8mb 85f 86f
9:10pm  -   -   -  20 27 mph 1009.6mb - 85f
9:00pm  -   -   -  20 25 mph 1009.4mb 85f 85f
8:50pm 5.5ft 7s 5s 20 25 mph 1009.4mb 85f 85f
8:40pm  -   -   -  18 22 mph 1009.3mb 85f 86f
8:30pm  -   -   -  20 22 mph 1009.2mb 85f 85f
8:20pm  -   -   -  18 22 mph 1009.2mb - -
8:10pm  -   -   -  20 25 mph 1009.1mb 85f 85f
8:00pm  -   -   -  20 25 mph 1009mb 85f 85f
7:50pm 6ft 7s 5s 18 22 mph 1008.9mb 85f 86f
7:40pm  -   -   -  20 27 mph 1008.7mb 85f 85f
7:20pm  -   -   -  18 22 mph 1008.5mb 85f 85f
7:10pm  -   -   -  20 25 mph 1008.5mb 85f 86f
7:00pm  -   -   -  20 25 mph 1008.4mb 85f 86f
6:50pm  -   -   -  20 25 mph 1008.3mb 85f 86f
6:40pm  -   -   -  20 25 mph 1008.3mb 85f 85f
6:30pm  -   -   -  20 25 mph 1008.4mb 85f 85f
6:20pm  -   -   -  20 25 mph 1008.3mb 85f 86f
6:10pm  -   -   -  20 27 mph 1008.3mb 85f 86f
6:00pm  -   -   -  20 25 mph 1008.2mb 85f 86f
5:50pm 5.5ft 6s 5s 20 25 mph 1008.3mb 85f 86f
5:40pm  -   -   -  18 22 mph 1008.3mb 85f 86f
5:30pm  -   -   -  20 25 mph 1008.3mb 85f 86f
5:20pm  -   -   -  20 25 mph 1008.3mb 85f 86f
5:10pm  -   -   -  20 25 mph 1008.2mb 86f 86f
5:00pm  -   -   -  22 25 mph 1008.1mb 86f 86f
4:50pm 6ft 7s 5s 22 25 mph 1008mb 86f 86f
4:40pm  -   -   -  20 25 mph 1008.1mb 86f 86f
4:30pm  -   -   -  20 25 mph 1008.2mb 86f 86f
4:20pm  -   -   -  20 27 mph 1008.2mb 86f 86f
4:10pm  -   -   -  20 25 mph 1008mb 86f 86f
4:00pm  -   -   -  20 25 mph 1008.1mb 86f 86f
3:50pm 6ft 7s 5s 20 27 mph 1008.4mb 86f 86f
3:40pm  -   -   -  20 25 mph 1008.6mb 86f 86f
3:30pm  -   -   -  20 25 mph 1008.8mb 86f 86f
3:20pm  -   -   -  20 22 mph 1008.9mb 86f 86f
3:10pm  -   -   -  18 22 mph 1009mb 85f 86f
3:00pm  -   -   -  20 25 mph 1009mb 86f 86f
2:50pm 6ft 6s 5s 20 25 mph 1009.1mb 86f 86f
2:40pm 6ft  -  5s 20 25 mph 1009.3mb 86f 86f
2:30pm  -   -   -  20 25 mph 1009.5mb 86f 86f
2:20pm  -   -   -  18 25 mph 1009.5mb 86f 86f
2:10pm  -   -   -  20 25 mph 1009.5mb 86f 86f
2:00pm  -   -   -  20 25 mph 1009.5mb 86f 86f
1:50pm 6ft 7s 5s 20 25 mph 1009.6mb 86f 86f
1:40pm  -   -   -  20 25 mph 1009.7mb 85f 86f
1:30pm  -   -   -  18 22 mph 1009.7mb 85f 85f
1:20pm  -   -   -  18 20 mph 1009.8mb - 84f
1:10pm  -   -   -  20 27 mph 1009.9mb 85f 84f
1:00pm  -   -   -  22 27 mph 1010.1mb 85f 85f
12:50pm 5.5ft 7s 5s 20 27 mph 1010.1mb 85f 86f
12:40pm  -   -   -  20 25 mph 1010.2mb 85f 86f
12:30pm  -   -   -  20 25 mph 1010.2mb - 86f
12:20pm  -   -   -  20 27 mph 1010.2mb 85f 86f
12:10pm  -   -   -  22 29 mph 1010.3mb 85f 86f
12:00pm  -   -   -  20 25 mph 1010.4mb 85f 86f
11:50am 5ft  -  5s 22 27 mph 1010.5mb 85f 86f
11:40am 5ft 7s 5s  -  mph - - -
11:30am  -   -   -  20 27 mph 1010.8mb - 86f
11:20am  -   -   -  22 27 mph 1010.9mb 85f 86f
11:10am  -   -   -  22 27 mph 1010.9mb 85f 86f
11:00am  -   -   -  20 27 mph 1010.7mb 85f 86f
10:50am 5.5ft 7s 5s 20 27 mph 1010.9mb 85f 86f
10:40am  -   -   -  22 25 mph 1010.8mb 85f 86f
10:30am  -   -   -  20 25 mph 1011mb 85f 86f
10:20am  -   -   -  20 25 mph 1011.2mb 85f 86f
10:10am  -   -   -  20 25 mph 1011.2mb 85f 86f
10:00am  -   -   -  18 22 mph 1011.3mb 85f 86f
9:50am 5.5ft 7s 5s 20 25 mph 1011.2mb 85f 86f
9:40am  -   -   -  20 25 mph 1011.1mb 85f 86f
9:30am  -   -   -  20 25 mph 1010.8mb 85f 86f
9:20am  -   -   -  20 27 mph 1010.6mb 85f 86f
9:10am  -   -   -  20 25 mph 1010.7mb 85f 86f
9:00am  -   -   -  22 25 mph 1010.6mb 85f 86f
8:50am 5.5ft 6s 5s 22 27 mph 1010.5mb 85f 86f
8:40am  -   -   -  22 27 mph 1010.6mb 85f 86f
8:30am  -   -   -  22 27 mph 1010.8mb 85f 86f
8:20am  -   -   -  20 25 mph 1010.5mb 85f 86f
8:10am  -   -   -  20 27 mph 1010.3mb 85f 86f
8:00am  -   -   -  22 27 mph 1010.2mb 85f 86f
7:50am 6ft 7s 5s 22 27 mph 1010mb 85f 86f
7:40am  -   -   -  22 27 mph 1009.8mb 85f 86f
7:30am  -   -   -  20 27 mph 1009.8mb 85f 86f
7:20am  -   -   -  20 25 mph 1010mb 85f 86f
7:10am  -   -   -  20 27 mph 1009.8mb 85f 86f
7:00am  -   -   -  22 27 mph 1009.6mb 85f 86f
6:50am 5ft 7s 5s 20 25 mph 1009.5mb 85f 86f
6:40am  -   -   -  22 27 mph 1009.6mb 85f 86f
6:30am  -   -   -  22 25 mph 1009.7mb 85f 86f
6:20am  -   -   -  20 25 mph 1009.4mb 85f 86f
6:10am  -   -   -  20 22 mph 1009.2mb 85f 86f
6:00am  -   -   -  20 25 mph 1009.2mb 85f 86f
5:50am 5ft 7s 5s 20 25 mph 1009mb 85f 86f
5:40am  -   -   -  20 25 mph 1009.1mb 85f 85f
5:30am  -   -   -  18 22 mph 1009.2mb 85f 85f
5:20am  -   -   -  18 25 mph 1009.1mb 85f 85f
5:10am  -   -   -  18 22 mph 1008.9mb 85f 86f
5:00am  -   -   -  20 25 mph 1008.9mb 85f 85f
4:50am 5.5ft 7s 5s 20 25 mph 1008.6mb 85f 85f
4:40am  -   -   -  20 25 mph 1008.4mb 85f 85f
4:30am  -   -   -  18 22 mph 1008.6mb - 85f
4:20am  -   -   -  18 22 mph 1008.7mb 85f 85f
4:10am  -   -   -  16 20 mph 1008.7mb 85f 85f
4:00am  -   -   -  16 20 mph 1008.7mb 85f 85f
3:50am 5.5ft 7s 5s 16 20 mph 1008.7mb 85f 85f
3:40am 5.5ft  -  5s 16 20 mph 1008.7mb 85f 85f
3:30am  -   -   -  16 20 mph 1008.9mb 85f 85f
3:20am  -   -   -  16 20 mph 1008.9mb 85f 85f